createdAt,value
2019-05-14T00:01:51.389Z,14.13
2019-05-14T00:04:57.082Z,15.50
2019-05-14T00:08:02.766Z,15.40
2019-05-14T00:11:08.518Z,11.70
2019-05-14T00:14:14.200Z,13.40
2019-05-14T00:17:22.761Z,12.70
2019-05-14T00:20:28.475Z,12.23
2019-05-14T00:23:34.150Z,14.73
2019-05-14T00:26:42.367Z,13.80
2019-05-14T00:29:47.514Z,12.73
2019-05-14T00:32:53.209Z,12.47
2019-05-14T00:35:58.892Z,13.50
2019-05-14T00:39:05.470Z,13.40
2019-05-14T00:42:12.593Z,14.23
2019-05-14T00:45:18.954Z,13.83
2019-05-14T00:48:24.681Z,14.03
2019-05-14T00:51:31.823Z,12.33
2019-05-14T00:54:37.557Z,14.77
2019-05-14T00:57:43.374Z,14.30
2019-05-14T01:00:49.092Z,16.67
2019-05-14T01:03:55.869Z,13.17
2019-05-14T01:07:01.761Z,13.90
2019-05-14T01:10:08.031Z,16.27
2019-05-14T01:13:14.092Z,13.90
2019-05-14T01:16:22.223Z,16.60
2019-05-14T01:19:27.348Z,15.47
2019-05-14T01:22:33.053Z,17.13
2019-05-14T01:25:38.836Z,14.90
2019-05-14T01:28:44.630Z,18.27
2019-05-14T01:31:52.042Z,16.47
2019-05-14T01:35:01.308Z,14.40
2019-05-14T01:38:06.356Z,16.67
2019-05-14T01:41:12.101Z,16.53
2019-05-14T01:44:17.837Z,15.43
2019-05-14T01:47:23.741Z,16.80
2019-05-14T01:50:29.495Z,14.23
2019-05-14T01:53:35.203Z,19.33
2019-05-14T01:56:42.396Z,14.97
2019-05-14T01:59:48.151Z,17.73
2019-05-14T02:02:53.898Z,18.90
2019-05-14T02:06:01.383Z,21.23
2019-05-14T02:09:07.872Z,22.23
2019-05-14T02:12:13.678Z,20.33
2019-05-14T02:15:21.408Z,20.50
2019-05-14T02:18:27.098Z,21.40
2019-05-14T02:21:32.893Z,23.57
2019-05-14T02:24:38.594Z,25.40
2019-05-14T02:27:44.359Z,26.20
2019-05-14T02:30:57.682Z,25.97
2019-05-14T02:33:59.200Z,30.23
2019-05-14T02:37:04.991Z,28.03
2019-05-14T02:40:10.997Z,29.60
2019-05-14T02:43:19.617Z,33.83
2019-05-14T02:46:24.119Z,33.07
2019-05-14T02:49:30.248Z,34.43
2019-05-14T02:52:36.127Z,35.23
2019-05-14T02:55:41.860Z,37.87
2019-05-14T02:58:49.886Z,36.57
2019-05-14T03:01:54.973Z,36.03
2019-05-14T03:05:00.866Z,39.80
2019-05-14T03:08:09.009Z,38.80
2019-05-14T03:11:14.674Z,34.63
2019-05-14T03:14:20.412Z,34.67
2019-05-14T03:17:26.196Z,36.03
2019-05-14T03:20:31.990Z,33.50
2019-05-14T03:23:39.271Z,37.00
2019-05-14T03:26:45.252Z,36.23
2019-05-14T03:29:51.191Z,42.17
2019-05-14T03:33:01.997Z,38.13
2019-05-14T03:36:09.195Z,32.43
2019-05-14T03:39:12.223Z,35.27
2019-05-14T03:42:19.229Z,34.03
2019-05-14T03:45:25.332Z,38.83
2019-05-14T03:48:31.247Z,34.47
2019-05-14T03:51:39.343Z,36.80
2019-05-14T03:54:44.711Z,37.17
2019-05-14T03:57:50.479Z,37.63
2019-05-14T04:01:02.770Z,36.70
2019-05-14T04:04:10.175Z,40.17
2019-05-14T04:07:19.548Z,40.73
2019-05-14T04:10:24.618Z,40.07
2019-05-14T04:13:32.294Z,37.60
2019-05-14T04:16:40.026Z,34.20
2019-05-14T04:19:51.374Z,32.87
2019-05-14T04:23:00.219Z,35.80
2019-05-14T04:26:09.368Z,36.33
2019-05-14T04:29:19.636Z,33.60
2019-05-14T04:32:24.107Z,33.53
2019-05-14T04:35:30.198Z,26.67
2019-05-14T04:38:35.935Z,28.13
2019-05-14T04:41:41.639Z,29.60
2019-05-14T04:44:50.205Z,24.07
2019-05-14T04:47:54.942Z,26.03
2019-05-14T04:51:00.827Z,29.57
2019-05-14T04:54:09.442Z,32.20
2019-05-14T04:57:13.948Z,34.23
2019-05-14T05:00:20.056Z,40.70
2019-05-14T05:03:25.776Z,48.47
2019-05-14T05:06:31.504Z,47.53
2019-05-14T05:09:39.818Z,33.93
2019-05-14T05:12:44.676Z,30.80
2019-05-14T05:15:50.404Z,29.23
2019-05-14T05:18:59.182Z,29.97
2019-05-14T05:22:03.540Z,30.87
2019-05-14T05:25:09.576Z,26.87
2019-05-14T05:28:15.307Z,27.27
2019-05-14T05:31:21.011Z,26.70
2019-05-14T05:34:28.300Z,25.23
2019-05-14T05:37:34.321Z,26.93
2019-05-14T05:40:40.020Z,26.50
2019-05-14T05:43:48.373Z,29.43
2019-05-14T05:46:55.729Z,27.13
2019-05-14T05:50:01.588Z,26.17
2019-05-14T05:53:09.056Z,25.20
2019-05-14T05:56:52.601Z,27.07
2019-05-14T06:01:19.670Z,27.27
2019-05-14T06:04:58.764Z,26.73
2019-05-14T06:08:15.355Z,26.40
2019-05-14T06:11:22.348Z,26.27
2019-05-14T06:14:29.165Z,26.10
2019-05-14T06:17:35.126Z,29.83
2019-05-14T06:20:42.891Z,24.87
2019-05-14T06:23:49.290Z,28.60
2019-05-14T06:26:55.129Z,30.43
2019-05-14T06:30:00.923Z,29.97
2019-05-14T06:33:09.775Z,28.63
2019-05-14T06:36:15.594Z,27.03
2019-05-14T06:39:21.439Z,31.37
2019-05-14T06:42:28.514Z,26.40
2019-05-14T06:45:34.358Z,28.63
2019-05-14T06:48:40.065Z,29.43
2019-05-14T06:51:48.710Z,33.03
2019-05-14T06:54:53.343Z,26.03
2019-05-14T06:57:59.174Z,26.07
2019-05-14T07:01:04.937Z,30.60
2019-05-14T07:04:10.632Z,25.30
2019-05-14T07:07:16.571Z,22.63
2019-05-14T07:10:22.335Z,22.20
2019-05-14T07:13:29.235Z,18.43
2019-05-14T07:16:35.266Z,19.47
2019-05-14T07:19:40.972Z,19.37
2019-05-14T07:22:48.385Z,18.37
2019-05-14T07:25:54.347Z,18.87
2019-05-14T07:29:00.182Z,19.27
2019-05-14T07:32:08.755Z,18.97
2019-05-14T07:35:13.426Z,16.07
2019-05-14T07:38:19.616Z,16.27
2019-05-14T07:41:28.287Z,18.00
2019-05-14T07:44:32.945Z,20.60
2019-05-14T07:47:39.037Z,23.20
2019-05-14T07:50:48.258Z,17.83
2019-05-14T07:53:52.572Z,19.43
2019-05-14T07:56:59.092Z,18.03
2019-05-14T08:00:05.598Z,19.67
2019-05-14T08:03:11.354Z,18.10
2019-05-14T08:06:18.898Z,19.43
2019-05-14T08:09:25.277Z,19.90
2019-05-14T08:12:31.011Z,21.27
2019-05-14T08:15:38.707Z,21.63
2019-05-14T08:18:44.319Z,20.17
2019-05-14T08:21:53.234Z,20.17
2019-05-14T08:24:59.111Z,18.70
2019-05-14T08:28:04.887Z,20.37
2019-05-14T08:31:10.685Z,17.93
2019-05-14T08:34:19.006Z,18.60
2019-05-14T08:37:23.974Z,16.03
2019-05-14T08:40:35.159Z,18.83
2019-05-14T08:43:41.072Z,18.23
2019-05-14T08:46:48.664Z,16.80
2019-05-14T08:49:54.181Z,19.63
2019-05-14T08:52:59.912Z,16.23
2019-05-14T08:56:08.143Z,18.40
2019-05-14T08:59:13.198Z,21.43
2019-05-14T09:02:19.734Z,18.27
2019-05-14T09:05:25.539Z,17.47
2019-05-14T09:08:31.324Z,17.03
2019-05-14T09:11:45.144Z,19.10
2019-05-14T09:14:48.321Z,19.23
2019-05-14T09:17:54.332Z,16.33
2019-05-14T09:21:00.057Z,20.27
2019-05-14T09:24:09.394Z,20.63
2019-05-14T09:27:14.496Z,21.40
2019-05-14T09:30:20.472Z,20.57
2019-05-14T09:33:26.258Z,18.93
2019-05-14T09:36:31.932Z,21.07
2019-05-14T09:39:38.555Z,20.73
2019-05-14T09:42:44.609Z,22.47
2019-05-14T09:45:50.318Z,23.27
2019-05-14T09:48:56.027Z,22.37
2019-05-14T09:52:01.796Z,23.27
2019-05-14T09:55:09.383Z,20.50
2019-05-14T09:58:15.426Z,24.10
2019-05-14T10:01:21.322Z,26.07
2019-05-14T10:04:27.166Z,22.67
2019-05-14T10:07:32.891Z,23.17
2019-05-14T10:10:39.910Z,23.23
2019-05-14T10:13:48.186Z,21.53
2019-05-14T10:16:53.374Z,22.17
2019-05-14T10:19:59.625Z,20.07
2019-05-14T10:23:05.824Z,21.73
2019-05-14T10:26:11.502Z,22.13
2019-05-14T10:29:19.144Z,22.50
2019-05-14T10:32:24.714Z,24.27
2019-05-14T10:35:30.412Z,23.60
2019-05-14T10:38:38.553Z,21.47
2019-05-14T10:41:44.592Z,24.40
2019-05-14T10:44:50.674Z,27.87
2019-05-14T10:47:58.609Z,26.20
2019-05-14T10:51:05.367Z,21.77
2019-05-14T10:54:22.503Z,22.80
2019-05-14T10:57:18.753Z,20.50
2019-05-14T11:00:24.968Z,23.03
2019-05-14T11:03:32.309Z,24.87
2019-05-14T11:06:38.792Z,20.17
2019-05-14T11:09:44.666Z,21.40
2019-05-14T11:12:54.829Z,24.17
2019-05-14T11:15:59.953Z,21.23
2019-05-14T11:19:09.038Z,22.10
2019-05-14T11:22:14.966Z,22.83
2019-05-14T11:25:20.943Z,25.17
2019-05-14T11:28:28.562Z,24.57
2019-05-14T11:31:34.450Z,23.80
2019-05-14T11:34:40.372Z,21.60
2019-05-14T11:37:48.149Z,22.43
2019-05-14T11:40:54.164Z,23.57
2019-05-14T11:43:59.982Z,24.23
2019-05-14T11:47:05.755Z,25.53
2019-05-14T11:50:12.036Z,25.47
2019-05-14T11:53:20.115Z,27.60
2019-05-14T11:56:25.175Z,27.30
2019-05-14T11:59:31.667Z,24.97
2019-05-14T12:02:44.121Z,26.07
2019-05-14T12:05:52.922Z,25.33
2019-05-14T12:08:58.732Z,26.53
2019-05-14T12:12:04.776Z,30.83
2019-05-14T12:15:10.903Z,25.63
2019-05-14T12:18:18.550Z,24.50
2019-05-14T12:21:24.998Z,23.80
2019-05-14T12:24:30.844Z,23.13
2019-05-14T12:27:38.751Z,26.47
2019-05-14T12:30:45.126Z,25.77
2019-05-14T12:33:50.919Z,26.80
2019-05-14T12:36:58.212Z,27.60
2019-05-14T12:40:04.382Z,27.17
2019-05-14T12:43:10.104Z,24.47
2019-05-14T12:46:15.981Z,27.30
2019-05-14T12:49:21.733Z,23.80
2019-05-14T12:52:29.637Z,22.57
2019-05-14T12:55:34.910Z,21.30
2019-05-14T12:58:45.438Z,23.93
2019-05-14T13:01:49.284Z,23.63
2019-05-14T13:04:55.173Z,23.37
2019-05-14T13:08:00.900Z,22.30
2019-05-14T13:11:09.322Z,22.20
2019-05-14T13:14:14.224Z,25.50
2019-05-14T13:17:19.962Z,27.33
2019-05-14T13:20:29.101Z,25.27
2019-05-14T13:23:35.079Z,24.80
2019-05-14T13:26:40.755Z,27.87
2019-05-14T13:56:04.093Z,29.80
2019-05-14T13:59:10.006Z,27.67
2019-05-14T14:02:18.688Z,27.90
2019-05-14T14:05:23.266Z,30.60
2019-05-14T14:08:29.388Z,33.87
2019-05-14T14:11:35.442Z,27.13
2019-05-14T14:14:41.523Z,27.57
2019-05-14T14:17:49.415Z,28.53
2019-05-14T14:20:54.675Z,29.87
2019-05-14T14:24:00.359Z,27.17
2019-05-14T14:27:08.925Z,32.10
2019-05-14T14:30:14.723Z,31.20
2019-05-14T14:33:20.541Z,29.53
2019-05-14T14:36:29.857Z,31.37
2019-05-14T14:39:33.781Z,31.77
2019-05-14T14:42:40.453Z,30.67
2019-05-14T14:45:50.570Z,34.03
2019-05-14T14:48:57.832Z,31.60
2019-05-14T14:52:01.520Z,28.53
2019-05-14T14:55:08.037Z,31.53
2019-05-14T14:58:15.815Z,31.17
2019-05-14T15:01:21.282Z,39.57
2019-05-14T15:04:27.996Z,31.27
2019-05-14T15:07:33.773Z,29.23
2019-05-14T15:10:39.717Z,29.60
2019-05-14T15:13:45.509Z,36.63
2019-05-14T15:16:51.222Z,31.07
2019-05-14T15:19:59.545Z,28.60
2019-05-14T15:23:04.580Z,30.37
2019-05-14T15:26:12.291Z,30.47
2019-05-14T15:29:18.731Z,27.77
2019-05-14T15:32:24.719Z,25.97
2019-05-14T15:35:30.530Z,27.60
2019-05-14T15:38:39.707Z,20.30
2019-05-14T15:41:49.884Z,23.60
2019-05-14T15:44:56.991Z,34.17
2019-05-14T15:48:04.268Z,26.30
2019-05-14T15:51:14.267Z,27.90
2019-05-14T15:54:36.121Z,26.67
2019-05-14T15:57:29.518Z,25.50
2019-05-14T16:00:38.496Z,24.13
2019-05-14T16:03:44.530Z,25.23
2019-05-14T16:06:55.138Z,23.47
2019-05-14T16:10:01.057Z,24.03
2019-05-14T16:13:08.750Z,20.47
2019-05-14T16:16:14.857Z,21.87
2019-05-14T16:19:21.885Z,17.60
2019-05-14T16:22:29.378Z,21.50
2019-05-14T16:25:35.392Z,19.27
2019-05-14T16:28:42.456Z,18.87
2019-05-14T16:31:48.787Z,24.87
2019-05-14T16:34:54.779Z,21.40
2019-05-14T16:38:01.763Z,17.90
2019-05-14T16:41:07.720Z,18.27
2019-05-14T16:44:13.424Z,21.33
2019-05-14T16:47:19.246Z,16.93
2019-05-14T16:50:25.033Z,18.67
2019-05-14T16:53:30.785Z,19.27
2019-05-14T16:56:41.125Z,17.70
2019-05-14T16:59:44.552Z,17.77
2019-05-14T17:02:50.253Z,17.57
2019-05-14T17:05:58.055Z,21.43
2019-05-14T17:09:03.886Z,18.77
2019-05-14T17:12:09.966Z,20.53
2019-05-14T17:15:18.044Z,17.80
2019-05-14T17:18:23.344Z,20.23
2019-05-14T17:21:29.847Z,19.37
2019-05-14T17:24:35.739Z,18.07
2019-05-14T17:27:42.981Z,17.10
2019-05-14T17:30:49.236Z,22.33
2019-05-14T17:33:55.040Z,16.67
2019-05-14T17:37:01.401Z,17.30
2019-05-14T17:40:09.419Z,19.43
2019-05-14T17:43:14.988Z,18.53
2019-05-14T17:46:20.930Z,22.60
2019-05-14T17:49:28.339Z,18.23
2019-05-14T17:52:34.238Z,19.23
2019-05-14T17:55:47.106Z,19.80
2019-05-14T17:58:49.162Z,23.13
2019-05-14T18:01:54.867Z,20.17
2019-05-14T18:05:00.596Z,18.80
2019-05-14T18:08:09.302Z,18.30
2019-05-14T18:11:15.126Z,19.93
2019-05-14T18:14:20.782Z,16.83
2019-05-14T18:17:29.447Z,17.97
2019-05-14T18:20:33.992Z,19.93
2019-05-14T18:23:42.047Z,17.10
2019-05-14T18:26:48.124Z,19.03
2019-05-14T18:29:53.891Z,17.93
2019-05-14T18:32:59.814Z,17.97
2019-05-14T18:36:07.940Z,18.20
2019-05-14T18:39:13.648Z,21.23
2019-05-14T18:42:19.539Z,21.40
2019-05-14T18:45:25.363Z,21.00
2019-05-14T18:48:31.235Z,19.97
2019-05-14T18:51:36.952Z,26.27
2019-05-14T18:54:42.720Z,17.10
2019-05-14T18:57:48.748Z,18.63
2019-05-14T19:00:54.688Z,17.53
2019-05-14T19:04:00.451Z,20.37
2019-05-14T19:07:06.252Z,20.53
2019-05-14T19:10:12.253Z,19.23
2019-05-14T19:13:18.740Z,21.43
2019-05-14T19:16:24.779Z,17.63
2019-05-14T19:19:30.535Z,20.33
2019-05-14T19:22:39.465Z,18.63
2019-05-14T19:25:43.689Z,21.43
2019-05-14T19:28:49.415Z,24.80
2019-05-14T19:31:55.202Z,22.23
2019-05-14T19:35:00.918Z,24.07
2019-05-14T19:38:08.877Z,17.57
2019-05-14T19:41:21.029Z,20.50
2019-05-14T19:44:24.784Z,20.67
2019-05-14T19:47:30.563Z,20.00
2019-05-14T19:50:48.878Z,21.60
2019-05-14T19:53:55.307Z,25.57
2019-05-14T19:57:06.161Z,26.47
2019-05-14T20:00:12.537Z,21.30
2019-05-14T20:03:18.723Z,21.07
2019-05-14T20:06:33.920Z,20.80
2019-05-14T20:09:39.923Z,22.67
2019-05-14T20:12:49.611Z,20.73
2019-05-14T20:15:58.919Z,19.70
2019-05-14T20:19:04.315Z,19.70
2019-05-14T20:22:10.066Z,22.93
2019-05-14T20:25:16.238Z,20.93
2019-05-14T20:28:22.227Z,19.40
2019-05-14T20:31:29.663Z,20.00
2019-05-14T20:34:35.564Z,26.93
2019-05-14T20:37:41.277Z,22.73
2019-05-14T20:40:48.748Z,24.03
2019-05-14T20:43:56.086Z,27.70
2019-05-14T20:47:04.457Z,24.17
2019-05-14T20:50:13.867Z,23.10
2019-05-14T20:53:19.595Z,25.60
2019-05-14T20:56:25.282Z,23.57
2019-05-14T20:59:31.000Z,24.23
2019-05-14T21:02:39.431Z,31.17
2019-05-14T21:05:44.304Z,24.17
2019-05-14T21:08:50.092Z,26.13
2019-05-14T21:11:55.840Z,26.13
2019-05-14T21:15:01.550Z,28.53
2019-05-14T21:18:08.376Z,25.80
2019-05-14T21:21:14.331Z,28.17
2019-05-14T21:24:21.780Z,25.70
2019-05-14T21:27:41.174Z,25.93
2019-05-14T21:30:35.441Z,25.73
2019-05-14T21:33:41.490Z,27.63
2019-05-14T21:36:49.641Z,30.17
2019-05-14T21:39:55.325Z,28.60
2019-05-14T21:43:01.185Z,29.03
2019-05-14T21:46:08.149Z,29.37
2019-05-14T21:49:15.037Z,31.63
2019-05-14T21:52:20.782Z,35.43
2019-05-14T21:55:28.925Z,34.20
2019-05-14T21:58:38.694Z,33.23
2019-05-14T22:01:45.455Z,36.37
2019-05-14T22:04:51.280Z,34.13
2019-05-14T22:07:57.983Z,35.77
2019-05-14T22:11:04.916Z,32.17
2019-05-14T22:14:10.608Z,37.30
2019-05-14T22:17:16.319Z,35.17
2019-05-14T22:20:22.117Z,36.70
2019-05-14T22:23:29.176Z,37.57
2019-05-14T22:26:35.168Z,33.83
2019-05-14T22:29:41.233Z,34.67
2019-05-14T22:32:49.668Z,31.63
2019-05-14T22:36:00.957Z,35.57
2019-05-14T22:39:19.787Z,36.27
2019-05-14T22:43:25.322Z,36.87
2019-05-14T22:46:24.738Z,33.73
2019-05-14T22:49:30.662Z,35.30
2019-05-14T22:52:38.589Z,36.07
2019-05-14T22:55:43.809Z,34.37
2019-05-14T22:58:49.513Z,40.53
2019-05-14T23:01:55.226Z,37.07
2019-05-14T23:05:01.070Z,35.60
2019-05-14T23:08:08.972Z,37.27
2019-05-14T23:11:14.906Z,35.73
2019-05-14T23:14:20.630Z,40.83
2019-05-14T23:17:28.031Z,35.60
2019-05-14T23:20:34.822Z,33.43
2019-05-14T23:28:24.297Z,37.33
2019-05-14T23:31:29.996Z,38.97
2019-05-14T23:34:37.860Z,37.93
2019-05-14T23:37:43.817Z,37.87
2019-05-14T23:40:49.567Z,37.10
2019-05-14T23:43:55.309Z,41.10
2019-05-14T23:47:01.007Z,42.17
2019-05-14T23:50:08.170Z,45.23
2019-05-14T23:53:14.100Z,41.17
2019-05-14T23:56:19.873Z,39.70
2019-05-14T23:59:25.895Z,41.13
